createdAt,value
2023-10-23T00:00:12.122Z,63.14
2023-10-23T00:02:38.936Z,63.30
2023-10-23T00:05:06.746Z,63.17
2023-10-23T00:07:33.469Z,63.33
2023-10-23T00:10:00.244Z,63.24
2023-10-23T00:12:26.943Z,63.17
2023-10-23T00:14:53.699Z,63.23
2023-10-23T00:17:20.433Z,63.34
2023-10-23T00:19:47.072Z,63.12
2023-10-23T00:22:13.721Z,63.16
2023-10-23T00:24:40.597Z,63.10
2023-10-23T00:27:07.456Z,63.09
2023-10-23T00:29:34.177Z,63.15
2023-10-23T00:32:00.819Z,63.21
2023-10-23T00:34:27.549Z,63.35
2023-10-23T00:36:54.194Z,63.45
2023-10-23T00:39:21.023Z,63.39
2023-10-23T00:41:47.651Z,63.43
2023-10-23T00:44:14.375Z,63.31
2023-10-23T00:46:41.518Z,63.34
2023-10-23T00:49:09.522Z,63.17
2023-10-23T00:51:36.743Z,63.27
2023-10-23T00:54:07.028Z,63.18
2023-10-23T00:56:34.902Z,63.30
2023-10-23T00:59:02.114Z,63.43
2023-10-23T01:01:30.266Z,63.52
2023-10-23T01:03:57.319Z,63.42
2023-10-23T01:06:24.063Z,63.33
2023-10-23T01:08:50.764Z,63.31
2023-10-23T01:11:17.592Z,63.50
2023-10-23T01:13:44.312Z,63.62
2023-10-23T01:16:11.038Z,63.62
2023-10-23T01:18:37.832Z,63.69
2023-10-23T01:21:04.555Z,63.76
2023-10-23T01:23:35.872Z,63.82
2023-10-23T01:26:02.714Z,63.86
2023-10-23T01:28:29.556Z,63.85
2023-10-23T01:30:56.284Z,63.79
2023-10-23T01:33:23.086Z,63.90
2023-10-23T01:35:49.916Z,63.85
2023-10-23T01:38:17.140Z,63.87
2023-10-23T01:40:43.816Z,63.77
2023-10-23T01:43:10.526Z,63.67
2023-10-23T01:45:37.303Z,63.52
2023-10-23T01:48:04.299Z,63.48
2023-10-23T01:50:31.062Z,63.45
2023-10-23T01:52:57.849Z,63.46
2023-10-23T01:55:24.530Z,63.64
2023-10-23T01:57:51.261Z,63.52
2023-10-23T02:00:18.269Z,63.60
2023-10-23T02:02:45.089Z,63.55
2023-10-23T02:05:11.739Z,63.45
2023-10-23T02:07:38.526Z,63.25
2023-10-23T02:10:05.578Z,63.19
2023-10-23T02:12:32.220Z,63.28
2023-10-23T02:15:00.433Z,63.29
2023-10-23T02:17:27.130Z,63.21
2023-10-23T02:19:53.775Z,63.33
2023-10-23T02:22:20.493Z,63.11
2023-10-23T02:24:47.269Z,63.31
2023-10-23T02:27:14.140Z,63.03
2023-10-23T02:29:40.820Z,63.07
2023-10-23T02:32:08.378Z,63.32
2023-10-23T02:34:38.683Z,63.34
2023-10-23T02:37:08.230Z,63.68
2023-10-23T02:39:34.997Z,63.56
2023-10-23T02:42:01.790Z,63.59
2023-10-23T02:44:28.515Z,63.60
2023-10-23T02:46:55.360Z,63.59
2023-10-23T02:49:22.103Z,63.39
2023-10-23T02:51:48.990Z,63.35
2023-10-23T02:54:15.709Z,63.51
2023-10-23T02:56:42.454Z,63.64
2023-10-23T02:59:09.090Z,63.73
2023-10-23T03:01:35.922Z,63.67
2023-10-23T03:04:02.794Z,63.85
2023-10-23T03:06:30.161Z,63.84
2023-10-23T03:08:58.989Z,63.84
2023-10-23T03:11:26.874Z,63.91
2023-10-23T03:13:53.526Z,63.62
2023-10-23T03:16:20.267Z,63.67
2023-10-23T03:18:47.161Z,63.83
2023-10-23T03:21:13.887Z,64.01
2023-10-23T03:23:40.867Z,64.05
2023-10-23T03:26:07.557Z,64.24
2023-10-23T03:28:34.246Z,64.11
2023-10-23T03:31:02.219Z,64.03
2023-10-23T03:33:28.874Z,64.02
2023-10-23T03:35:55.524Z,63.88
2023-10-23T03:38:22.173Z,63.70
2023-10-23T03:40:59.318Z,63.73
2023-10-23T03:43:26.437Z,63.91
2023-10-23T03:45:53.233Z,63.71
2023-10-23T03:48:20.064Z,63.72
2023-10-23T03:50:46.830Z,63.69
2023-10-23T03:53:13.601Z,63.47
2023-10-23T03:55:40.451Z,63.42
2023-10-23T03:58:07.145Z,63.69
2023-10-23T04:00:34.156Z,63.85
2023-10-23T04:03:00.866Z,64.01
2023-10-23T04:05:27.680Z,64.04
2023-10-23T04:07:54.300Z,63.94
2023-10-23T04:10:21.110Z,63.57
2023-10-23T04:12:47.861Z,63.75
2023-10-23T04:15:14.636Z,63.55
2023-10-23T04:17:41.271Z,63.58
2023-10-23T04:20:08.546Z,63.56
2023-10-23T04:22:35.165Z,63.50
2023-10-23T04:25:01.842Z,63.43
2023-10-23T04:27:28.609Z,63.57
2023-10-23T04:29:55.219Z,63.52
2023-10-23T04:32:21.873Z,63.57
2023-10-23T04:34:48.452Z,63.68
2023-10-23T04:37:15.314Z,63.60
2023-10-23T04:39:42.233Z,63.54
2023-10-23T04:42:09.084Z,63.47
2023-10-23T04:44:35.763Z,63.60
2023-10-23T04:47:02.595Z,63.62
2023-10-23T04:49:29.476Z,63.56
2023-10-23T04:51:56.229Z,63.52
2023-10-23T04:54:22.861Z,63.40
2023-10-23T04:56:49.663Z,63.54
2023-10-23T04:59:16.312Z,63.53
2023-10-23T05:01:42.991Z,63.72
2023-10-23T05:04:09.795Z,63.65
2023-10-23T05:06:36.511Z,63.74
2023-10-23T05:09:03.418Z,63.84
2023-10-23T05:11:30.071Z,63.88
2023-10-23T05:13:56.937Z,64.09
2023-10-23T05:16:23.699Z,64.32
2023-10-23T05:18:50.876Z,64.26
2023-10-23T05:21:17.875Z,64.92
2023-10-23T05:23:44.561Z,64.72
2023-10-23T05:26:11.261Z,64.79
2023-10-23T05:28:41.785Z,65.33
2023-10-23T05:31:08.957Z,65.07
2023-10-23T05:33:36.272Z,65.08
2023-10-23T05:36:03.600Z,65.02
2023-10-23T05:38:30.329Z,65.03
2023-10-23T05:40:58.232Z,64.85
2023-10-23T05:43:28.158Z,65.37
2023-10-23T05:45:55.922Z,64.95
2023-10-23T05:48:22.867Z,65.07
2023-10-23T05:51:04.191Z,65.70
2023-10-23T05:53:31.993Z,65.31
2023-10-23T05:56:05.788Z,65.54
2023-10-23T05:58:33.713Z,65.46
2023-10-23T06:01:07.463Z,65.81
2023-10-23T06:03:35.142Z,65.60
2023-10-23T06:06:02.054Z,65.46
2023-10-23T06:08:28.712Z,65.57
2023-10-23T06:10:55.456Z,65.34
2023-10-23T06:13:22.262Z,65.41
2023-10-23T06:15:49.720Z,65.53
2023-10-23T06:18:16.506Z,65.63
2023-10-23T06:20:43.228Z,65.47
2023-10-23T06:23:09.976Z,65.47
2023-10-23T06:25:36.646Z,65.30
2023-10-23T06:28:03.353Z,65.22
2023-10-23T06:30:30.693Z,65.37
2023-10-23T06:32:58.109Z,65.63
2023-10-23T06:35:24.916Z,65.69
2023-10-23T06:37:51.748Z,65.93
2023-10-23T06:40:18.396Z,65.87
2023-10-23T06:42:45.165Z,66.13
2023-10-23T06:45:11.898Z,66.41
2023-10-23T06:47:38.672Z,66.48
2023-10-23T06:50:06.181Z,66.39
2023-10-23T06:52:33.776Z,66.55
2023-10-23T06:55:00.449Z,66.83
2023-10-23T06:57:27.326Z,67.10
2023-10-23T06:59:54.082Z,67.14
2023-10-23T07:02:20.734Z,67.23
2023-10-23T07:04:47.439Z,67.24
2023-10-23T07:07:26.065Z,67.27
2023-10-23T07:09:57.108Z,67.25
2023-10-23T07:12:23.800Z,67.35
2023-10-23T07:14:50.649Z,67.36
2023-10-23T07:17:18.177Z,67.44
2023-10-23T07:19:45.009Z,67.66
2023-10-23T07:22:11.834Z,67.77
2023-10-23T07:24:38.525Z,67.69
2023-10-23T07:27:05.212Z,67.74
2023-10-23T07:29:31.953Z,67.70
2023-10-23T07:31:58.622Z,67.76
2023-10-23T07:34:25.259Z,67.67
2023-10-23T07:36:52.026Z,67.69
2023-10-23T07:39:18.626Z,67.56
2023-10-23T07:41:45.380Z,67.66
2023-10-23T07:44:11.978Z,67.59
2023-10-23T07:46:40.594Z,67.60
2023-10-23T07:49:07.451Z,67.69
2023-10-23T07:51:34.055Z,67.70
2023-10-23T07:54:00.781Z,67.68
2023-10-23T07:56:27.428Z,67.74
2023-10-23T07:58:54.679Z,67.68
2023-10-23T08:01:21.366Z,67.92
2023-10-23T08:03:48.185Z,67.97
2023-10-23T08:06:16.727Z,68.09
2023-10-23T08:08:44.171Z,68.55
2023-10-23T08:11:12.443Z,68.56
2023-10-23T08:13:39.700Z,68.65
2023-10-23T08:16:06.970Z,68.59
2023-10-23T08:18:40.038Z,68.56
2023-10-23T08:21:16.576Z,67.31
2023-10-23T08:23:45.214Z,68.03
2023-10-23T08:26:11.912Z,68.08
2023-10-23T08:31:16.734Z,67.49
2023-10-23T08:33:47.783Z,67.13
2023-10-23T08:36:14.509Z,66.73
2023-10-23T08:38:41.169Z,66.60
2023-10-23T08:41:11.839Z,65.75
2023-10-23T08:43:40.283Z,65.72
2023-10-23T08:46:07.116Z,65.56
2023-10-23T08:48:33.861Z,65.32
2023-10-23T08:51:00.842Z,65.33
2023-10-23T08:53:33.444Z,63.94
2023-10-23T08:56:04.155Z,63.83
2023-10-23T08:58:32.745Z,63.98
2023-10-23T09:00:59.479Z,64.13
2023-10-23T09:04:01.798Z,63.48
2023-10-23T09:06:17.779Z,62.03
2023-10-23T09:08:45.100Z,62.84
2023-10-23T09:11:11.897Z,62.42
2023-10-23T09:13:40.787Z,62.20
2023-10-23T09:16:08.698Z,61.99
2023-10-23T09:18:45.556Z,61.51
2023-10-23T09:21:12.327Z,61.95
2023-10-23T09:23:52.648Z,60.87
2023-10-23T09:26:19.804Z,61.43
2023-10-23T09:28:47.336Z,61.61
2023-10-23T09:31:14.818Z,61.68
2023-10-23T09:33:41.610Z,61.94
2023-10-23T09:36:08.835Z,62.16
2023-10-23T09:38:35.826Z,62.41
2023-10-23T09:41:02.509Z,62.63
2023-10-23T09:43:29.191Z,62.42
2023-10-23T09:45:58.557Z,61.73
2023-10-23T09:48:26.389Z,62.32
2023-10-23T09:50:56.012Z,62.44
2023-10-23T09:53:23.005Z,61.98
2023-10-23T09:55:52.684Z,61.72
2023-10-23T09:58:21.951Z,61.54
2023-10-23T10:00:49.335Z,61.63
2023-10-23T10:03:19.181Z,61.05
2023-10-23T10:05:59.180Z,61.13
2023-10-23T10:08:27.836Z,61.51
2023-10-23T10:10:55.205Z,61.77
2023-10-23T10:13:22.326Z,61.54
2023-10-23T10:15:50.831Z,60.61
2023-10-23T10:18:17.756Z,61.02
2023-10-23T10:20:48.732Z,59.86
2023-10-23T10:23:17.266Z,60.07
2023-10-23T10:25:47.125Z,59.55
2023-10-23T10:28:14.942Z,59.88
2023-10-23T10:30:45.649Z,58.66
2023-10-23T10:34:18.720Z,57.67
2023-10-23T10:36:45.289Z,58.44
2023-10-23T10:39:05.139Z,58.26
2023-10-23T10:41:36.056Z,57.15
2023-10-23T10:44:09.885Z,57.38
2023-10-23T10:46:36.791Z,57.97
2023-10-23T10:49:04.866Z,57.95
2023-10-23T10:51:31.596Z,58.27
2023-10-23T10:54:03.536Z,58.12
2023-10-23T10:56:33.685Z,57.04
2023-10-23T10:59:04.529Z,56.50
2023-10-23T11:01:32.453Z,57.95
2023-10-23T11:04:00.444Z,57.52
2023-10-23T11:06:27.209Z,58.82
2023-10-23T11:08:53.936Z,56.38
2023-10-23T11:11:20.684Z,55.44
2023-10-23T11:13:47.341Z,55.58
2023-10-23T11:16:14.198Z,54.64
2023-10-23T11:18:40.939Z,55.09
2023-10-23T11:21:07.648Z,53.45
2023-10-23T11:23:34.266Z,53.03
2023-10-23T11:26:01.025Z,53.03
2023-10-23T11:28:27.744Z,53.86
2023-10-23T11:30:56.609Z,54.35
2023-10-23T11:33:23.370Z,54.22
2023-10-23T11:35:50.029Z,54.13
2023-10-23T11:38:21.119Z,53.71
2023-10-23T11:40:47.900Z,53.45
2023-10-23T11:43:15.699Z,53.43
2023-10-23T11:45:42.910Z,53.72
2023-10-23T11:48:12.068Z,53.32
2023-10-23T11:50:40.759Z,53.30
2023-10-23T11:53:07.549Z,53.96
2023-10-23T11:55:36.443Z,54.54
2023-10-23T11:58:03.485Z,54.45
2023-10-23T12:00:32.912Z,53.23
2023-10-23T12:02:59.911Z,53.43
2023-10-23T12:05:26.669Z,52.97
2023-10-23T12:07:56.936Z,52.73
2023-10-23T12:10:28.904Z,52.39
2023-10-23T12:12:56.493Z,53.34
2023-10-23T12:15:24.583Z,53.47
2023-10-23T12:17:51.235Z,54.93
2023-10-23T12:20:17.909Z,53.41
2023-10-23T12:22:46.175Z,53.79
2023-10-23T12:25:14.157Z,54.76
2023-10-23T12:27:41.380Z,55.77
2023-10-23T12:30:10.148Z,54.48
2023-10-23T12:33:17.500Z,53.35
2023-10-23T12:35:24.409Z,53.15
2023-10-23T12:37:51.248Z,53.38
2023-10-23T12:40:18.010Z,53.19
2023-10-23T12:42:44.888Z,54.00
2023-10-23T12:45:11.715Z,53.01
2023-10-23T12:47:38.412Z,52.77
2023-10-23T12:50:05.748Z,53.22
2023-10-23T12:52:33.311Z,53.85
2023-10-23T12:55:00.130Z,53.75
2023-10-23T12:57:26.999Z,53.65
2023-10-23T12:59:53.700Z,54.33
2023-10-23T13:02:20.383Z,54.50
2023-10-23T13:04:49.717Z,54.69
2023-10-23T13:07:17.098Z,54.26
2023-10-23T13:09:43.873Z,54.01
2023-10-23T13:12:10.690Z,52.66
2023-10-23T13:14:37.364Z,51.68
2023-10-23T13:17:04.112Z,52.60
2023-10-23T13:19:30.921Z,52.84
2023-10-23T13:21:57.707Z,52.76
2023-10-23T13:24:24.388Z,52.84
2023-10-23T13:26:50.981Z,53.37
2023-10-23T13:29:17.668Z,53.39
2023-10-23T13:31:44.650Z,53.54
2023-10-23T13:34:11.427Z,53.36
2023-10-23T13:36:38.166Z,52.09
2023-10-23T13:39:05.011Z,52.49
2023-10-23T13:41:31.742Z,52.60
2023-10-23T13:43:58.342Z,52.10
2023-10-23T13:46:25.172Z,52.59
2023-10-23T13:48:52.031Z,52.04
2023-10-23T13:51:18.806Z,52.63
2023-10-23T13:53:45.440Z,53.08
2023-10-23T13:56:12.139Z,53.11
2023-10-23T13:58:38.848Z,51.57
2023-10-23T14:01:05.563Z,52.48
2023-10-23T14:03:32.417Z,52.49
2023-10-23T14:05:59.200Z,52.05
2023-10-23T14:09:38.626Z,51.08
2023-10-23T14:11:57.842Z,51.70
2023-10-23T14:13:59.831Z,51.12
2023-10-23T14:16:27.567Z,51.23
2023-10-23T14:18:54.407Z,52.01
2023-10-23T14:21:21.201Z,52.35
2023-10-23T14:23:47.818Z,52.17
2023-10-23T14:26:14.470Z,52.04
2023-10-23T14:28:41.287Z,51.98
2023-10-23T14:31:08.001Z,52.38
2023-10-23T14:33:34.607Z,52.28
2023-10-23T14:36:01.315Z,52.41
2023-10-23T14:38:27.971Z,52.63
2023-10-23T14:40:55.602Z,52.91
2023-10-23T14:43:22.326Z,53.30
2023-10-23T14:45:49.061Z,53.07
2023-10-23T14:48:15.850Z,53.17
2023-10-23T14:50:42.523Z,53.32
2023-10-23T14:53:09.167Z,52.99
2023-10-23T14:55:35.877Z,52.85
2023-10-23T14:58:02.699Z,52.88
2023-10-23T15:00:29.350Z,52.94
2023-10-23T15:02:56.070Z,53.24
2023-10-23T15:05:22.734Z,53.38
2023-10-23T15:07:49.500Z,53.45
2023-10-23T15:10:16.376Z,53.66
2023-10-23T15:12:43.271Z,54.03
2023-10-23T15:15:10.479Z,53.61
2023-10-23T15:17:37.198Z,53.59
2023-10-23T15:20:04.044Z,53.50
2023-10-23T15:22:31.596Z,53.38
2023-10-23T15:24:59.606Z,53.39
2023-10-23T15:27:26.392Z,53.20
2023-10-23T15:29:53.033Z,53.33
2023-10-23T15:32:19.657Z,53.59
2023-10-23T15:34:46.749Z,53.16
2023-10-23T15:37:13.437Z,53.38
2023-10-23T15:39:40.465Z,53.89
2023-10-23T15:42:07.778Z,53.86
2023-10-23T15:44:34.923Z,54.20
2023-10-23T15:47:01.694Z,54.46
2023-10-23T15:49:28.367Z,54.37
2023-10-23T15:51:55.057Z,54.72
2023-10-23T15:54:21.747Z,54.94
2023-10-23T15:56:48.565Z,55.11
2023-10-23T15:59:15.224Z,55.20
2023-10-23T16:01:41.936Z,55.64
2023-10-23T16:04:09.135Z,55.65
2023-10-23T16:06:35.852Z,56.28
2023-10-23T16:09:13.199Z,56.30
2023-10-23T16:11:48.999Z,56.59
2023-10-23T16:14:17.889Z,56.89
2023-10-23T16:16:44.626Z,56.93
2023-10-23T16:19:11.390Z,57.14
2023-10-23T16:21:38.054Z,57.35
2023-10-23T16:24:05.101Z,57.51
2023-10-23T16:26:31.741Z,57.69
2023-10-23T16:28:58.390Z,57.95
2023-10-23T16:31:27.828Z,58.03
2023-10-23T16:33:54.589Z,58.44
2023-10-23T16:36:21.322Z,58.48
2023-10-23T16:38:47.929Z,58.71
2023-10-23T16:41:14.578Z,58.78
2023-10-23T16:43:41.628Z,59.00
2023-10-23T16:46:08.504Z,59.16
2023-10-23T16:48:35.227Z,59.15
2023-10-23T16:51:03.440Z,59.55
2023-10-23T16:53:30.046Z,59.57
2023-10-23T16:55:56.687Z,59.61
2023-10-23T16:58:23.349Z,59.84
2023-10-23T17:00:51.814Z,59.83
2023-10-23T17:03:18.610Z,59.87
2023-10-23T17:05:45.593Z,60.12
2023-10-23T17:08:12.277Z,60.16
2023-10-23T17:10:39.016Z,60.08
2023-10-23T17:13:05.739Z,60.29
2023-10-23T17:15:32.405Z,60.36
2023-10-23T17:17:59.991Z,60.34
2023-10-23T17:20:26.655Z,60.59
2023-10-23T17:22:53.267Z,60.44
2023-10-23T17:25:20.000Z,60.78
2023-10-23T17:27:46.673Z,60.85
2023-10-23T17:30:13.596Z,60.66
2023-10-23T17:32:41.174Z,60.81
2023-10-23T17:35:08.104Z,60.97
2023-10-23T17:37:34.816Z,60.96
2023-10-23T17:40:01.643Z,60.87
2023-10-23T17:42:28.371Z,60.96
2023-10-23T17:44:55.001Z,61.01
2023-10-23T17:47:21.783Z,61.10
2023-10-23T17:49:48.494Z,61.07
2023-10-23T17:52:15.181Z,61.21
2023-10-23T17:54:41.907Z,61.19
2023-10-23T17:57:08.552Z,61.15
2023-10-23T17:59:35.230Z,61.17
2023-10-23T18:02:02.226Z,61.20
2023-10-23T18:04:29.071Z,61.02
2023-10-23T18:06:55.972Z,61.18
2023-10-23T18:09:22.583Z,61.25
2023-10-23T18:11:49.184Z,61.17
2023-10-23T18:14:15.773Z,61.37
2023-10-23T18:16:42.403Z,61.42
2023-10-23T18:19:09.153Z,61.47
2023-10-23T18:21:35.793Z,61.46
2023-10-23T18:24:02.413Z,61.63
2023-10-23T18:26:29.044Z,61.42
2023-10-23T18:28:55.716Z,61.61
2023-10-23T18:31:22.404Z,61.72
2023-10-23T18:33:49.229Z,61.43
2023-10-23T18:36:16.725Z,61.69
2023-10-23T18:38:43.475Z,61.60
2023-10-23T18:41:16.368Z,61.61
2023-10-23T18:43:44.369Z,61.63
2023-10-23T18:46:12.049Z,61.58
2023-10-23T18:48:39.227Z,61.62
2023-10-23T18:51:06.176Z,61.61
2023-10-23T18:53:33.158Z,61.67
2023-10-23T18:56:00.025Z,61.74
2023-10-23T18:58:26.683Z,61.83
2023-10-23T19:00:53.669Z,61.81
2023-10-23T19:03:20.367Z,61.80
2023-10-23T19:05:47.066Z,61.88
2023-10-23T19:08:13.809Z,61.86
2023-10-23T19:10:40.772Z,62.04
2023-10-23T19:13:07.537Z,62.19
2023-10-23T19:15:34.297Z,62.08
2023-10-23T19:18:01.060Z,62.11
2023-10-23T19:20:27.806Z,62.30
2023-10-23T19:22:54.420Z,62.17
2023-10-23T19:25:21.465Z,62.40
2023-10-23T19:27:48.286Z,62.16
2023-10-23T19:30:15.225Z,62.29
2023-10-23T19:32:42.260Z,62.30
2023-10-23T19:35:09.967Z,62.64
2023-10-23T19:37:36.953Z,62.51
2023-10-23T19:40:04.153Z,62.49
2023-10-23T19:42:37.837Z,62.93
2023-10-23T19:45:04.992Z,62.45
2023-10-23T19:47:32.065Z,62.95
2023-10-23T19:49:59.169Z,62.91
2023-10-23T19:52:27.254Z,62.90
2023-10-23T19:54:55.233Z,62.83
2023-10-23T19:57:33.344Z,62.92
2023-10-23T20:00:00.039Z,62.81
2023-10-23T20:02:26.766Z,62.94
2023-10-23T20:04:53.690Z,62.92
2023-10-23T20:07:20.511Z,62.95
2023-10-23T20:09:47.899Z,63.24
2023-10-23T20:12:14.785Z,63.18
2023-10-23T20:14:41.550Z,63.25
2023-10-23T20:17:08.305Z,63.25
2023-10-23T20:19:35.010Z,63.28
2023-10-23T20:22:01.802Z,63.31
2023-10-23T20:24:28.816Z,63.42
2023-10-23T20:26:55.601Z,63.47
2023-10-23T20:29:22.739Z,63.51
2023-10-23T20:31:49.377Z,63.40
2023-10-23T20:34:16.103Z,63.59
2023-10-23T20:36:42.864Z,63.60
2023-10-23T20:39:10.173Z,63.80
2023-10-23T20:41:36.780Z,63.65
2023-10-23T20:44:03.480Z,63.64
2023-10-23T20:46:30.202Z,63.63
2023-10-23T20:48:56.928Z,63.64
2023-10-23T20:51:23.536Z,63.77
2023-10-23T20:53:50.491Z,63.82
2023-10-23T20:56:17.190Z,63.84
2023-10-23T20:58:43.838Z,63.88
2023-10-23T21:01:10.750Z,63.64
2023-10-23T21:03:37.581Z,63.67
2023-10-23T21:06:05.475Z,63.79
2023-10-23T21:08:39.810Z,63.93
2023-10-23T21:11:07.281Z,63.78
2023-10-23T21:13:35.037Z,63.78
2023-10-23T21:16:02.013Z,63.75
2023-10-23T21:18:28.960Z,63.77
2023-10-23T21:20:56.292Z,63.97
2023-10-23T21:23:23.093Z,63.97
2023-10-23T21:25:49.701Z,63.97
2023-10-23T21:28:16.580Z,63.83
2023-10-23T21:30:43.228Z,63.81
2023-10-23T21:33:09.928Z,64.00
2023-10-23T21:35:36.549Z,64.02
2023-10-23T21:38:03.390Z,63.98
2023-10-23T21:40:30.005Z,63.98
2023-10-23T21:42:56.697Z,63.88
2023-10-23T21:45:24.322Z,64.15
2023-10-23T21:47:51.420Z,63.96
2023-10-23T21:50:18.249Z,64.01
2023-10-23T21:52:45.128Z,63.93
2023-10-23T21:55:18.334Z,64.04
2023-10-23T21:57:45.601Z,64.08
2023-10-23T22:00:13.021Z,64.11
2023-10-23T22:02:40.415Z,64.11
2023-10-23T22:05:07.620Z,64.17
2023-10-23T22:07:34.467Z,64.29
2023-10-23T22:10:01.366Z,64.20
2023-10-23T22:12:28.203Z,64.31
2023-10-23T22:14:54.777Z,64.29
2023-10-23T22:17:21.552Z,64.43
2023-10-23T22:19:48.268Z,64.48
2023-10-23T22:22:14.902Z,64.36
2023-10-23T22:24:41.737Z,64.33
2023-10-23T22:27:08.521Z,64.36
2023-10-23T22:29:35.425Z,64.34
2023-10-23T22:32:02.069Z,64.52
2023-10-23T22:34:28.835Z,64.51
2023-10-23T22:37:58.554Z,64.26
2023-10-23T22:39:42.159Z,64.35
2023-10-23T22:42:08.938Z,64.32
2023-10-23T22:44:35.672Z,64.07
2023-10-23T22:47:02.366Z,64.12
2023-10-23T22:49:29.427Z,64.00
2023-10-23T22:51:56.520Z,63.80
2023-10-23T22:54:23.694Z,63.63
2023-10-23T22:56:50.446Z,63.66
2023-10-23T22:59:17.525Z,63.85
2023-10-23T23:01:44.477Z,63.76
2023-10-23T23:04:11.666Z,63.88
2023-10-23T23:06:40.818Z,63.95
2023-10-23T23:09:07.539Z,63.84
2023-10-23T23:11:34.633Z,63.90
2023-10-23T23:14:01.487Z,63.98
2023-10-23T23:16:30.391Z,64.05
2023-10-23T23:18:58.321Z,64.00
2023-10-23T23:21:26.899Z,64.17
2023-10-23T23:23:53.527Z,64.03
2023-10-23T23:26:20.198Z,64.05
2023-10-23T23:28:46.860Z,64.12
2023-10-23T23:31:13.758Z,64.17
2023-10-23T23:33:40.424Z,63.96
2023-10-23T23:36:07.095Z,64.00
2023-10-23T23:38:33.886Z,63.97
2023-10-23T23:41:00.557Z,63.96
2023-10-23T23:43:27.379Z,63.71
2023-10-23T23:45:54.125Z,63.53
2023-10-23T23:48:20.793Z,63.53
2023-10-23T23:50:47.548Z,63.48
2023-10-23T23:53:14.233Z,63.46
2023-10-23T23:55:40.957Z,63.50
2023-10-23T23:58:07.629Z,63.45
